Home > Products > Valid Products > TAF

000
FTUS42 KRAH 311722
TAFFAY
TAF
KFAY 311722Z 3118/0118 VRB04KT P6SM SCT080
     FM010400 VRB03KT P6SM SCT250
      TEMPO 0110/0112 5SM BR
     FM011400 36005KT P6SM FEW080=



000
FTUS42 KRAH 311722
TAFRDU
TAF
KRDU 311722Z 3118/0118 32005KT P6SM FEW070
     FM010100 VRB04KT P6SM FEW250
     FM011400 01007KT P6SM FEW080=



000
FTUS42 KRAH 311722
TAFRWI
TAF
KRWI 311722Z 3118/0118 36007KT P6SM FEW070
     FM010400 VRB03KT P6SM FEW250
     FM011400 VRB04KT P6SM SCT080=



000
FTUS42 KRAH 311722
TAFGSO
TAF
KGSO 311722Z 3118/0118 03006KT P6SM SCT250
     FM011100 35003KT P6SM SCT060=



000
FTUS42 KRAH 311722
TAFINT
TAF
KINT 311722Z 3118/0118 03006KT P6SM SCT250
     FM011100 35003KT P6SM SCT060=



000
FTUS42 KRAH 311722
TAFRWI
TAF
KRWI 311722Z 3118/0118 36007KT P6SM FEW070
     FM010400 VRB03KT P6SM FEW250
     FM011400 VRB04KT P6SM SCT080=



000
FTUS42 KRAH 311722
TAFFAY
TAF
KFAY 311722Z 3118/0118 VRB04KT P6SM SCT080
     FM010400 VRB03KT P6SM SCT250
      TEMPO 0110/0112 5SM BR
     FM011400 36005KT P6SM FEW080=



000
FTUS42 KRAH 311722
TAFRDU
TAF
KRDU 311722Z 3118/0118 32005KT P6SM FEW070
     FM010100 VRB04KT P6SM FEW250
     FM011400 01007KT P6SM FEW080=



000
FTUS42 KRAH 311722
TAFINT
TAF
KINT 311722Z 3118/0118 03006KT P6SM SCT250
     FM011100 35003KT P6SM SCT060=



000
FTUS42 KRAH 311722
TAFGSO
TAF
KGSO 311722Z 3118/0118 03006KT P6SM SCT250
     FM011100 35003KT P6SM SCT060=



000
FTUS42 KRAH 311532 AAA
TAFFAY
TAF AMD
KFAY 311532Z 3116/0112 03009G15KT P6SM SCT050
      TEMPO 3119/3123 BKN045
     FM010100 VRB04KT P6SM FEW040 BKN200=



000
FTUS42 KRAH 311532 AAA
TAFFAY
TAF AMD
KFAY 311532Z 3116/0112 03009G15KT P6SM SCT050
      TEMPO 3119/3123 BKN045
     FM010100 VRB04KT P6SM FEW040 BKN200=



000
FTUS42 KRAH 311532 AAA
TAFRWI
TAF AMD
KRWI 311532Z 3116/0112 01008G15KT P6SM SCT050
     FM010100 33003KT P6SM SCT250=



000
FTUS42 KRAH 311532 AAA
TAFRWI
TAF AMD
KRWI 311532Z 3116/0112 01008G15KT P6SM SCT050
     FM010100 33003KT P6SM SCT250=



000
FTUS42 KRAH 311530 AAA
TAFRDU
TAF AMD
KRDU 311530Z 3116/0112 02006G15KT P6SM SCT050 SCT250=



000
FTUS42 KRAH 311530 AAA
TAFRDU
TAF AMD
KRDU 311530Z 3116/0112 02006G15KT P6SM SCT050 SCT250=



000
FTUS42 KRAH 311530 AAA
TAFRDU
TAF AMD
KRDU 311530Z 3116/0112 02006G15KT P6SM SCT050 SCT250=



000
FTUS42 KRAH 311529 AAA
TAFINT
TAF AMD
KINT 311529Z 3115/0112 01008G15KT P6SM SCT050 SCT250=



000
FTUS42 KRAH 311529 AAA
TAFGSO
TAF AMD
KGSO 311529Z 3115/0112 01009G16KT P6SM SCT050 SCT250=



000
FTUS42 KRAH 311529 AAA
TAFGSO
TAF AMD
KGSO 311529Z 3115/0112 01009G16KT P6SM SCT050 SCT250=



000
FTUS42 KRAH 311529 AAA
TAFINT
TAF AMD
KINT 311529Z 3115/0112 01008G15KT P6SM SCT050 SCT250=



000
FTUS42 KRAH 311529 AAA
TAFINT
TAF AMD
KINT 311529Z 3115/0112 01008G15KT P6SM SCT050 SCT250=



000
FTUS42 KRAH 311529 AAA
TAFGSO
TAF AMD
KGSO 311529Z 3115/0112 01009G16KT P6SM SCT050 SCT250=



000
FTUS42 KRAH 311529 AAA
TAFGSO
TAF AMD
KGSO 311529Z 3115/0112 01009G16KT P6SM SCT050 SCT250=



000
FTUS42 KRAH 311120
TAFRDU
TAF
KRDU 311120Z 3112/0112 00000KT P6SM FEW090 SCT250
     FM311500 01006KT P6SM SCT050 SCT250=



000
FTUS42 KRAH 311120
TAFGSO
TAF
KGSO 311120Z 3112/0112 36003KT P6SM FEW080
     FM311500 32006KT P6SM SCT050 SCT250=



000
FTUS42 KRAH 311120
TAFGSO
TAF
KGSO 311120Z 3112/0112 36003KT P6SM FEW080
     FM311500 32006KT P6SM SCT050 SCT250=



000
FTUS42 KRAH 311120
TAFRWI
TAF
KRWI 311120Z 3112/0112 34007KT P6SM SCT080
     FM311500 01006KT P6SM SCT050 SCT250=



000
FTUS42 KRAH 311120
TAFFAY
TAF
KFAY 311120Z 3112/0112 36008KT P6SM OVC090
     FM311400 VRB05KT P6SM BKN050
      TEMPO 3119/3122 6SM -SHRA BR=



000
FTUS42 KRAH 311120
TAFFAY
TAF
KFAY 311120Z 3112/0112 36008KT P6SM OVC090
     FM311400 VRB05KT P6SM BKN050
      TEMPO 3119/3122 6SM -SHRA BR=



000
FTUS42 KRAH 311120
TAFRDU
TAF
KRDU 311120Z 3112/0112 00000KT P6SM FEW090 SCT250
     FM311500 01006KT P6SM SCT050 SCT250=



000
FTUS42 KRAH 311120
TAFINT
TAF
KINT 311120Z 3112/0112 34008KT P6SM SKC
     FM311500 32006KT P6SM SCT050 SCT250=



000
FTUS42 KRAH 311120
TAFINT
TAF
KINT 311120Z 3112/0112 34008KT P6SM SKC
     FM311500 32006KT P6SM SCT050 SCT250=



000
FTUS42 KRAH 311120
TAFRWI
TAF
KRWI 311120Z 3112/0112 34007KT P6SM SCT080
     FM311500 01006KT P6SM SCT050 SCT250=



000
FTUS42 KRAH 310814 AAA
TAFGSO
TAF AMD
KGSO 310814Z 3108/0106 36004KT P6SM FEW080
     FM311500 32006KT P6SM SCT050 SCT250=



000
FTUS42 KRAH 310814 AAA
TAFRDU
TAF AMD
KRDU 310814Z 3108/0106 01004KT P6SM SCT090 BKN200
     FM311500 01006KT P6SM SCT050 SCT250=



000
FTUS42 KRAH 310814 AAA
TAFRDU
TAF AMD
KRDU 310814Z 3108/0106 01004KT P6SM SCT090 BKN200
     FM311500 01006KT P6SM SCT050 SCT250=



000
FTUS42 KRAH 310814 AAA
TAFGSO
TAF AMD
KGSO 310814Z 3108/0106 36004KT P6SM FEW080
     FM311500 32006KT P6SM SCT050 SCT250=



000
FTUS42 KRAH 310814 AAA
TAFGSO
TAF AMD
KGSO 310814Z 3108/0106 36004KT P6SM FEW080
     FM311500 32006KT P6SM SCT050 SCT250=



000
FTUS42 KRAH 310532
TAFGSO
TAF
KGSO 310532Z 3106/0106 01007KT P6SM FEW070
     FM311500 32006KT P6SM SCT050 SCT250=



000
FTUS42 KRAH 310532
TAFRWI
TAF
KRWI 310532Z 3106/0106 VRB04KT P6SM VCSH BKN060 BKN080
     FM311500 01006KT P6SM SCT050 SCT250=



000
FTUS42 KRAH 310532
TAFFAY
TAF
KFAY 310532Z 3106/0106 21006KT P6SM VCSH SCT040 BKN070
      TEMPO 3108/3112 5SM BR
     FM311400 VRB05KT P6SM BKN050=



000
FTUS42 KRAH 310532
TAFRDU
TAF
KRDU 310532Z 3106/0106 VRB04KT P6SM BKN060 BKN080
     FM311500 01006KT P6SM SCT050 SCT250=



000
FTUS42 KRAH 310532
TAFINT
TAF
KINT 310532Z 3106/0106 01007KT P6SM FEW070
     FM311500 32006KT P6SM SCT050 SCT250=



000
FTUS42 KRAH 310146 AAA
TAFRDU
TAF AMD
KRDU 310146Z 3102/3124 34004KT P6SM VCSH FEW050 SCT100
     FM311200 01006KT P6SM SCT050 SCT250=



000
FTUS42 KRAH 310146 AAA
TAFRDU
TAF AMD
KRDU 310146Z 3102/3124 34004KT P6SM VCSH FEW050 SCT100
     FM311200 01006KT P6SM SCT050 SCT250=



000
FTUS42 KRAH 310146 AAB
TAFGSO
TAF AMD
KGSO 310146Z 3102/3124 34004KT P6SM VCSH FEW050 SCT100
      TEMPO 3102/3103 VRB10G25KT 1SM TSRA BKN030CB
     FM311200 01006KT P6SM SCT050 SCT250=



000
FTUS42 KRAH 310134 AAA
TAFGSO
TAF AMD
KGSO 310134Z 3102/3124 34004KT P6SM VCSH FEW050 SCT100
      TEMPO 3102/3103 3SM SHRA BKN030
     FM311200 01006KT P6SM SCT050 SCT250=



000
FTUS42 KRAH 310134 AAA
TAFGSO
TAF AMD
KGSO 310134Z 3102/3124 34004KT P6SM VCSH FEW050 SCT100
      TEMPO 3102/3103 3SM SHRA BKN030
     FM311200 01006KT P6SM SCT050 SCT250=



000
FTUS42 KRAH 302336
TAFINT
TAF
KINT 302336Z 3100/3124 34004KT P6SM VCSH FEW050 SCT100
     FM311200 01006KT P6SM SCT050 SCT250=



000
FTUS42 KRAH 302336
TAFRDU
TAF
KRDU 302336Z 3100/3124 34004KT P6SM VCSH FEW050 SCT100
     FM311200 01006KT P6SM SCT050 SCT250=



000
FTUS42 KRAH 302336
TAFFAY
TAF
KFAY 302336Z 3100/3124 VRB06KT P6SM VCSH SCT050 SCT250
      TEMPO 3100/3102 3SM TSRA BKN030CB
     FM311200 35006KT P6SM SCT050 SCT250=



000
FTUS42 KRAH 302336
TAFRWI
TAF
KRWI 302336Z 3100/3124 VRB06KT P6SM VCSH SCT050 SCT250
      TEMPO 3100/3102 3SM TSRA BKN030CB
     FM311200 35006KT P6SM SCT050 SCT250=



000
FTUS42 KRAH 302336
TAFGSO
TAF
KGSO 302336Z 3100/3124 34004KT P6SM VCSH FEW050 SCT100
     FM311200 01006KT P6SM SCT050 SCT250=



000
FTUS42 KRAH 302336
TAFRDU
TAF
KRDU 302336Z 3100/3124 34004KT P6SM VCSH FEW050 SCT100
     FM311200 01006KT P6SM SCT050 SCT250=



000
FTUS42 KRAH 302336
TAFINT
TAF
KINT 302336Z 3100/3124 34004KT P6SM VCSH FEW050 SCT100
     FM311200 01006KT P6SM SCT050 SCT250=



000
FTUS42 KRAH 302336
TAFGSO
TAF
KGSO 302336Z 3100/3124 34004KT P6SM VCSH FEW050 SCT100
     FM311200 01006KT P6SM SCT050 SCT250=



000
FTUS42 KRAH 302336
TAFRWI
TAF
KRWI 302336Z 3100/3124 VRB06KT P6SM VCSH SCT050 SCT250
      TEMPO 3100/3102 3SM TSRA BKN030CB
     FM311200 35006KT P6SM SCT050 SCT250=



000
FTUS42 KRAH 302336
TAFFAY
TAF
KFAY 302336Z 3100/3124 VRB06KT P6SM VCSH SCT050 SCT250
      TEMPO 3100/3102 3SM TSRA BKN030CB
     FM311200 35006KT P6SM SCT050 SCT250=



000
FTUS42 KRAH 302336
TAFRDU
TAF
KRDU 302336Z 3100/3124 34004KT P6SM VCSH FEW050 SCT100
     FM311200 01006KT P6SM SCT050 SCT250=



000
FTUS42 KRAH 302336
TAFRWI
TAF
KRWI 302336Z 3100/3124 VRB06KT P6SM VCSH SCT050 SCT250
      TEMPO 3100/3102 3SM TSRA BKN030CB
     FM311200 35006KT P6SM SCT050 SCT250=



000
FTUS42 KRAH 302336
TAFINT
TAF
KINT 302336Z 3100/3124 34004KT P6SM VCSH FEW050 SCT100
     FM311200 01006KT P6SM SCT050 SCT250=



000
FTUS42 KRAH 302336
TAFFAY
TAF
KFAY 302336Z 3100/3124 VRB06KT P6SM VCSH SCT050 SCT250
      TEMPO 3100/3102 3SM TSRA BKN030CB
     FM311200 35006KT P6SM SCT050 SCT250=



000
FTUS42 KRAH 302336
TAFGSO
TAF
KGSO 302336Z 3100/3124 34004KT P6SM VCSH FEW050 SCT100
     FM311200 01006KT P6SM SCT050 SCT250=



000
FTUS42 KRAH 302252 AAA
TAFRWI
TAF AMD
KRWI 302252Z 3023/3118 VRB06KT P6SM SCT050 SCT250
      TEMPO 3023/3101 3SM -TSRA BKN030CB
     FM310600 VRB04KT P6SM SCT050 BKN150
     FM311200 01005KT P6SM SCT250=



000
FTUS42 KRAH 302250 AAA
TAFFAY
TAF AMD
KFAY 302250Z 3023/3118 VRB06KT P6SM VCSH SCT050 SCT250
      TEMPO 3023/3101 3SM TSRA BKN030CB
     FM310700 34005KT P6SM SCT050 BKN150=



000
FTUS42 KRAH 302250 AAA
TAFFAY
TAF AMD
KFAY 302250Z 3023/3118 VRB06KT P6SM VCSH SCT050 SCT250
      TEMPO 3023/3101 3SM TSRA BKN030CB
     FM310700 34005KT P6SM SCT050 BKN150=



000
FTUS42 KRAH 302250 AAA
TAFFAY
TAF AMD
KFAY 302250Z 3023/3118 VRB06KT P6SM VCSH SCT050 SCT250
      TEMPO 3023/3101 3SM TSRA BKN030CB
     FM310700 34005KT P6SM SCT050 BKN150=



000
FTUS42 KRAH 302249 AAA
TAFRDU
TAF AMD
KRDU 302249Z 3023/3118 VRB04KT P6SM VCSH SCT030 SCT250
     FM310500 35005KT P6SM SCT250=



000
FTUS42 KRAH 301740 CCA
TAFFAY
TAF COR
KFAY 301740Z 3018/3118 VRB06KT P6SM VCSH SCT050 SCT250
      TEMPO 3018/3020 3SM TSRA BKN030CB
     FM310100 VRB05KT P6SM VCSH BKN050 OVC100
     FM310700 34005KT P6SM SCT050 BKN150=



000
FTUS42 KRAH 301740 CCA
TAFFAY
TAF COR
KFAY 301740Z 3018/3118 VRB06KT P6SM VCSH SCT050 SCT250
      TEMPO 3018/3020 3SM TSRA BKN030CB
     FM310100 VRB05KT P6SM VCSH BKN050 OVC100
     FM310700 34005KT P6SM SCT050 BKN150=



000
FTUS42 KRAH 301740 CCA
TAFFAY
TAF COR
KFAY 301740Z 3018/3118 VRB06KT P6SM VCSH SCT050 SCT250
      TEMPO 3018/3020 3SM TSRA BKN030CB
     FM310100 VRB05KT P6SM VCSH BKN050 OVC100
     FM310700 34005KT P6SM SCT050 BKN150=



000
FTUS42 KRAH 301720
TAFRDU
TAF
KRDU 301720Z 3018/3118 26005KT P6SM VCSH SCT030 SCT250
      TEMPO 3019/3023 VRB10G25KT 1SM TSRA BKN030CB
     FM302300 VRB05KT P6SM VCSH BKN050 OVC100
     FM310500 35005KT P6SM SCT250=



000
FTUS42 KRAH 301720
TAFGSO
TAF
KGSO 301720Z 3018/3118 VRB06KT P6SM SCT030 SCT110 BKN250
      TEMPO 3018/3022 VRB10G25KT 1SM TSRA BKN030CB
     FM302200 26006KT P6SM VCTS BKN050CB
     FM310100 35006KT P6SM BKN250=



000
FTUS42 KRAH 301720
TAFRWI
TAF
KRWI 301720Z 3018/3118 VRB06KT P6SM SCT050 SCT250
     FM310100 VRB05KT P6SM VCSH BKN050 OVC100
     FM310600 VRB04KT P6SM SCT050 BKN150=



000
FTUS42 KRAH 301720
TAFGSO
TAF
KGSO 301720Z 3018/3118 VRB06KT P6SM SCT030 SCT110 BKN250
      TEMPO 3018/3022 VRB10G25KT 1SM TSRA BKN030CB
     FM302200 26006KT P6SM VCTS BKN050CB
     FM310100 35006KT P6SM BKN250=



000
FTUS42 KRAH 301720
TAFFAY
TAF
KFAY 301720Z 3018/3118 VRB06KT P6SM SCT050 SCT250
     FM310100 VRB05KT P6SM VCSH BKN050 OVC100
     FM310700 34005KT P6SM SCT050 BKN150=



000
FTUS42 KRAH 301720
TAFRDU
TAF
KRDU 301720Z 3018/3118 26005KT P6SM VCSH SCT030 SCT250
      TEMPO 3019/3023 VRB10G25KT 1SM TSRA BKN030CB
     FM302300 VRB05KT P6SM VCSH BKN050 OVC100
     FM310500 35005KT P6SM SCT250=



000
FTUS42 KRAH 301720
TAFINT
TAF
KINT 301720Z 3018/3118 VRB06KT P6SM VCSH FEW030 SCT110
      TEMPO 3018/3022 VRB10G25KT 1SM TSRA BKN030CB
     FM302200 26006KT P6SM VCTS BKN050CB
     FM310100 35006KT P6SM BKN250=



000
FTUS42 KRAH 301720
TAFRDU
TAF
KRDU 301720Z 3018/3118 26005KT P6SM VCSH SCT030 SCT250
      TEMPO 3019/3023 VRB10G25KT 1SM TSRA BKN030CB
     FM302300 VRB05KT P6SM VCSH BKN050 OVC100
     FM310500 35005KT P6SM SCT250=



000
FTUS42 KRAH 301720
TAFRDU
TAF
KRDU 301720Z 3018/3118 26005KT P6SM VCSH SCT030 SCT250
      TEMPO 3019/3023 VRB10G25KT 1SM TSRA BKN030CB
     FM302300 VRB05KT P6SM VCSH BKN050 OVC100
     FM310500 35005KT P6SM SCT250=



000
FTUS42 KRAH 301720
TAFFAY
TAF
KFAY 301720Z 3018/3118 VRB06KT P6SM SCT050 SCT250
     FM310100 VRB05KT P6SM VCSH BKN050 OVC100
     FM310700 34005KT P6SM SCT050 BKN150=



000
FTUS42 KRAH 301720
TAFRWI
TAF
KRWI 301720Z 3018/3118 VRB06KT P6SM SCT050 SCT250
     FM310100 VRB05KT P6SM VCSH BKN050 OVC100
     FM310600 VRB04KT P6SM SCT050 BKN150=



000
FTUS42 KRAH 301720
TAFINT
TAF
KINT 301720Z 3018/3118 VRB06KT P6SM VCSH FEW030 SCT110
      TEMPO 3018/3022 VRB10G25KT 1SM TSRA BKN030CB
     FM302200 26006KT P6SM VCTS BKN050CB
     FM310100 35006KT P6SM BKN250=



000
FTUS42 KRAH 301720
TAFFAY
TAF
KFAY 301720Z 3018/3118 VRB06KT P6SM SCT050 SCT250
     FM310100 VRB05KT P6SM VCSH BKN050 OVC100
     FM310700 34005KT P6SM SCT050 BKN150=



000
FTUS42 KRAH 301720
TAFRWI
TAF
KRWI 301720Z 3018/3118 VRB06KT P6SM SCT050 SCT250
     FM310100 VRB05KT P6SM VCSH BKN050 OVC100
     FM310600 VRB04KT P6SM SCT050 BKN150=



000
FTUS42 KRAH 301720
TAFINT
TAF
KINT 301720Z 3018/3118 VRB06KT P6SM VCSH FEW030 SCT110
      TEMPO 3018/3022 VRB10G25KT 1SM TSRA BKN030CB
     FM302200 26006KT P6SM VCTS BKN050CB
     FM310100 35006KT P6SM BKN250=



000
FTUS42 KRAH 301649 AAA
TAFINT
TAF AMD
KINT 301649Z 3017/3112 VRB06KT P6SM VCSH FEW030 SCT110
      TEMPO 3017/3021 VRB10G25KT 1SM TSRA BKN030CB
     FM302100 26006KT P6SM VCTS BKN050CB
     FM310000 35006KT P6SM BKN250=



000
FTUS42 KRAH 301649 AAA
TAFINT
TAF AMD
KINT 301649Z 3017/3112 VRB06KT P6SM VCSH FEW030 SCT110
      TEMPO 3017/3021 VRB10G25KT 1SM TSRA BKN030CB
     FM302100 26006KT P6SM VCTS BKN050CB
     FM310000 35006KT P6SM BKN250=



000
FTUS42 KRAH 301649 AAA
TAFINT
TAF AMD
KINT 301649Z 3017/3112 VRB06KT P6SM VCSH FEW030 SCT110
      TEMPO 3017/3021 VRB10G25KT 1SM TSRA BKN030CB
     FM302100 26006KT P6SM VCTS BKN050CB
     FM310000 35006KT P6SM BKN250=



000
FTUS42 KRAH 301649 AAA
TAFINT
TAF AMD
KINT 301649Z 3017/3112 VRB06KT P6SM VCSH FEW030 SCT110
      TEMPO 3017/3021 VRB10G25KT 1SM TSRA BKN030CB
     FM302100 26006KT P6SM VCTS BKN050CB
     FM310000 35006KT P6SM BKN250=



000
FTUS42 KRAH 301648 AAA
TAFGSO
TAF AMD
KGSO 301648Z 3017/3112 VRB06KT P6SM SCT030 SCT110 BKN250
      TEMPO 3017/3021 VRB10G25KT 1SM TSRA BKN030CB
     FM302100 26006KT P6SM VCTS BKN050CB
     FM310000 35006KT P6SM BKN250=



000
FTUS42 KRAH 301648 AAA
TAFGSO
TAF AMD
KGSO 301648Z 3017/3112 VRB06KT P6SM SCT030 SCT110 BKN250
      TEMPO 3017/3021 VRB10G25KT 1SM TSRA BKN030CB
     FM302100 26006KT P6SM VCTS BKN050CB
     FM310000 35006KT P6SM BKN250=



000
FTUS42 KRAH 301648 AAA
TAFGSO
TAF AMD
KGSO 301648Z 3017/3112 VRB06KT P6SM SCT030 SCT110 BKN250
      TEMPO 3017/3021 VRB10G25KT 1SM TSRA BKN030CB
     FM302100 26006KT P6SM VCTS BKN050CB
     FM310000 35006KT P6SM BKN250=



000
FTUS42 KRAH 301159 CCA
TAFGSO
TAF COR
KGSO 301159Z 3012/3112 26006KT P6SM SCT050 SCT250
     FM302000 26006KT P6SM VCTS BKN050CB
     FM310000 35006KT P6SM BKN250=



000
FTUS42 KRAH 301159 CCA
TAFINT
TAF COR
KINT 301159Z 3012/3112 26006KT P6SM SCT050 SCT250
     FM302000 26006KT P6SM VCTS BKN050CB
     FM310000 35006KT P6SM BKN250=



000
FTUS42 KRAH 301159 CCA
TAFGSO
TAF COR
KGSO 301159Z 3012/3112 26006KT P6SM SCT050 SCT250
     FM302000 26006KT P6SM VCTS BKN050CB
     FM310000 35006KT P6SM BKN250=



000
FTUS42 KRAH 301159 CCA
TAFINT
TAF COR
KINT 301159Z 3012/3112 26006KT P6SM SCT050 SCT250
     FM302000 26006KT P6SM VCTS BKN050CB
     FM310000 35006KT P6SM BKN250=



000
FTUS42 KRAH 301159 CCA
TAFGSO
TAF COR
KGSO 301159Z 3012/3112 26006KT P6SM SCT050 SCT250
     FM302000 26006KT P6SM VCTS BKN050CB
     FM310000 35006KT P6SM BKN250=



000
FTUS42 KRAH 301159 CCA
TAFGSO
TAF COR
KGSO 301159Z 3012/3112 26006KT P6SM SCT050 SCT250
     FM302000 26006KT P6SM VCTS BKN050CB
     FM310000 35006KT P6SM BKN250=



000
FTUS42 KRAH 301159 CCA
TAFINT
TAF COR
KINT 301159Z 3012/3112 26006KT P6SM SCT050 SCT250
     FM302000 26006KT P6SM VCTS BKN050CB
     FM310000 35006KT P6SM BKN250=



000
FTUS42 KRAH 301159 CCA
TAFINT
TAF COR
KINT 301159Z 3012/3112 26006KT P6SM SCT050 SCT250
     FM302000 26006KT P6SM VCTS BKN050CB
     FM310000 35006KT P6SM BKN250=



000
FTUS42 KRAH 301120
TAFRDU
TAF
KRDU 301120Z 3012/3112 23004KT P6SM SCT050 SCT250
     FM302300 VRB05KT P6SM VCSH BKN050 OVC100
     FM310500 35005KT P6SM SCT250=



000
FTUS42 KRAH 301120
TAFRWI
TAF
KRWI 301120Z 3012/3112 VRB03KT P6SM SCT050 SCT250
     FM310300 VRB05KT P6SM VCSH BKN050 OVC100
     FM310600 VRB04KT P6SM SCT050 BKN150=



000
FTUS42 KRAH 301120
TAFINT
TAF
KINT 301120Z 3012/3112 VRB04KT 5SM BR SCT250
     FM301300 26006KT P6SM SCT050 SCT250
     FM302000 26006KT P6SM VCTS BKN050CB
     FM310000 35006KT P6SM BKN250=



000
FTUS42 KRAH 301120
TAFGSO
TAF
KGSO 301120Z 3012/3112 VRB04KT 5SM BR SCT250
     FM301300 26006KT P6SM SCT050 SCT250
     FM302000 26006KT P6SM VCTS BKN050CB
     FM310000 35006KT P6SM BKN250=



000
FTUS42 KRAH 301120
TAFFAY
TAF
KFAY 301120Z 3012/3112 VRB04KT P6SM SCT050 SCT250
     FM310400 VRB05KT P6SM VCSH BKN050 OVC100
     FM310700 34005KT P6SM SCT050 BKN150=



000
FTUS42 KRAH 301120
TAFRDU
TAF
KRDU 301120Z 3012/3112 23004KT P6SM SCT050 SCT250
     FM302300 VRB05KT P6SM VCSH BKN050 OVC100
     FM310500 35005KT P6SM SCT250=



000
FTUS42 KRAH 301120
TAFINT
TAF
KINT 301120Z 3012/3112 VRB04KT 5SM BR SCT250
     FM301300 26006KT P6SM SCT050 SCT250
     FM302000 26006KT P6SM VCTS BKN050CB
     FM310000 35006KT P6SM BKN250=



000
FTUS42 KRAH 301120
TAFFAY
TAF
KFAY 301120Z 3012/3112 VRB04KT P6SM SCT050 SCT250
     FM310400 VRB05KT P6SM VCSH BKN050 OVC100
     FM310700 34005KT P6SM SCT050 BKN150=



000
FTUS42 KRAH 301120
TAFGSO
TAF
KGSO 301120Z 3012/3112 VRB04KT 5SM BR SCT250
     FM301300 26006KT P6SM SCT050 SCT250
     FM302000 26006KT P6SM VCTS BKN050CB
     FM310000 35006KT P6SM BKN250=



000
FTUS42 KRAH 301120
TAFRWI
TAF
KRWI 301120Z 3012/3112 VRB03KT P6SM SCT050 SCT250
     FM310300 VRB05KT P6SM VCSH BKN050 OVC100
     FM310600 VRB04KT P6SM SCT050 BKN150=



000
FTUS42 KRAH 300953 AAA
TAFRWI
TAF AMD
KRWI 300953Z 3010/3106 00000KT 6SM BR FEW003 FEW250
      TEMPO 3011/3012 00000KT 1/2SM FG BKN002
     FM301400 VRB03KT P6SM SCT050 SCT150=



000
FTUS42 KRAH 300953 AAA
TAFRWI
TAF AMD
KRWI 300953Z 3010/3106 00000KT 6SM BR FEW003 FEW250
      TEMPO 3011/3012 00000KT 1/2SM FG BKN002
     FM301400 VRB03KT P6SM SCT050 SCT150=



000
FTUS42 KRAH 300848 AAA
TAFGSO
TAF AMD
KGSO 300848Z 3009/3106 VRB03KT P6SM VCSH SCT050 BKN070 BKN150
     FM301000 VRB04KT 5SM BR SCT250
     FM301300 26006KT P6SM SCT050 SCT250
     FM301900 28006KT P6SM VCSH OVC050 PROB30 3019/3023 4SM TS
      BKN050CB=



000
FTUS42 KRAH 300848 AAA
TAFGSO
TAF AMD
KGSO 300848Z 3009/3106 VRB03KT P6SM VCSH SCT050 BKN070 BKN150
     FM301000 VRB04KT 5SM BR SCT250
     FM301300 26006KT P6SM SCT050 SCT250
     FM301900 28006KT P6SM VCSH OVC050 PROB30 3019/3023 4SM TS
      BKN050CB=



000
FTUS42 KRAH 300848 AAA
TAFRDU
TAF AMD
KRDU 300848Z 3009/3106 VRB05KT P6SM FEW050 SCT150 SCT250
      TEMPO 3010/3012 4SM BR
     FM301300 23004KT P6SM SCT050 SCT250
     FM302100 VRB05KT P6SM VCSH BKN050 OVC100 PROB30 3022/3101 6SM
      TS BKN050CB=



000
FTUS42 KRAH 300848 AAA
TAFRDU
TAF AMD
KRDU 300848Z 3009/3106 VRB05KT P6SM FEW050 SCT150 SCT250
      TEMPO 3010/3012 4SM BR
     FM301300 23004KT P6SM SCT050 SCT250
     FM302100 VRB05KT P6SM VCSH BKN050 OVC100 PROB30 3022/3101 6SM
      TS BKN050CB=



000
FTUS42 KRAH 300532
TAFRDU
TAF
KRDU 300532Z 3006/3106 VRB05KT P6SM FEW050 SCT150 SCT250
      TEMPO 3010/3012 4SM BR
     FM301300 23004KT P6SM SCT050 SCT250
     FM302100 VRB05KT P6SM VCSH BKN050 OVC100 PROB30 3022/3101 6SM
      TS BKN050CB=



000
FTUS42 KRAH 300532
TAFINT
TAF
KINT 300532Z 3006/3106 VRB03KT P6SM VCSH SCT050 BKN070 BKN150
     FM301000 VRB04KT 5SM BR SCT250
     FM301300 26006KT P6SM SCT050 SCT250
     FM301800 28006KT P6SM VCSH OVC050 PROB30 3018/3022 3SM TS
      BKN050CB=



000
FTUS42 KRAH 300532
TAFRWI
TAF
KRWI 300532Z 3006/3106 VRB05KT P6SM FEW070 SCT150
     FM300800 00000KT 4SM BR FEW003 FEW250
      TEMPO 3009/3011 00000KT 1/2SM FG BKN002
     FM301400 VRB03KT P6SM SCT050 SCT150=



000
FTUS42 KRAH 300532
TAFFAY
TAF
KFAY 300532Z 3006/3106 VRB05KT P6SM FEW070 SCT150
     FM300900 00000KT 4SM BR FEW003 FEW250
      TEMPO 3011/3012 2SM BR SCT002
     FM301400 VRB03KT P6SM SCT050 SCT150=



000
FTUS42 KRAH 300532
TAFGSO
TAF
KGSO 300532Z 3006/3106 VRB03KT P6SM VCSH SCT050 BKN070 BKN150
     FM301000 VRB04KT 5SM BR SCT250
     FM301300 26006KT P6SM SCT050 SCT250
     FM301900 28006KT P6SM VCSH OVC050 PROB30 3019/3023 4SM TS
      BKN050CB=



000
FTUS42 KRAH 300532
TAFRDU
TAF
KRDU 300532Z 3006/3106 VRB05KT P6SM FEW050 SCT150 SCT250
      TEMPO 3010/3012 4SM BR
     FM301300 23004KT P6SM SCT050 SCT250
     FM302100 VRB05KT P6SM VCSH BKN050 OVC100 PROB30 3022/3101 6SM
      TS BKN050CB=



000
FTUS42 KRAH 300532
TAFINT
TAF
KINT 300532Z 3006/3106 VRB03KT P6SM VCSH SCT050 BKN070 BKN150
     FM301000 VRB04KT 5SM BR SCT250
     FM301300 26006KT P6SM SCT050 SCT250
     FM301800 28006KT P6SM VCSH OVC050 PROB30 3018/3022 3SM TS
      BKN050CB=



000
FTUS42 KRAH 300532
TAFFAY
TAF
KFAY 300532Z 3006/3106 VRB05KT P6SM FEW070 SCT150
     FM300900 00000KT 4SM BR FEW003 FEW250
      TEMPO 3011/3012 2SM BR SCT002
     FM301400 VRB03KT P6SM SCT050 SCT150=



000
FTUS42 KRAH 300532
TAFRWI
TAF
KRWI 300532Z 3006/3106 VRB05KT P6SM FEW070 SCT150
     FM300800 00000KT 4SM BR FEW003 FEW250
      TEMPO 3009/3011 00000KT 1/2SM FG BKN002
     FM301400 VRB03KT P6SM SCT050 SCT150=



000
FTUS42 KRAH 300532
TAFGSO
TAF
KGSO 300532Z 3006/3106 VRB03KT P6SM VCSH SCT050 BKN070 BKN150
     FM301000 VRB04KT 5SM BR SCT250
     FM301300 26006KT P6SM SCT050 SCT250
     FM301900 28006KT P6SM VCSH OVC050 PROB30 3019/3023 4SM TS
      BKN050CB=



000
FTUS42 KRAH 300244 AAA
TAFRDU
TAF AMD
KRDU 300244Z 3003/3024 VRB05KT P6SM FEW050 SCT150 SCT250
     FM301100 22003KT 4SM BR SCT150
     FM301300 23004KT P6SM SCT050 SCT250
     FM302100 VRB05KT P6SM VCSH BKN050 OVC100 PROB30 3021/3024 6SM
      TS BKN050CB=



000
FTUS42 KRAH 300244 AAA
TAFRDU
TAF AMD
KRDU 300244Z 3003/3024 VRB05KT P6SM FEW050 SCT150 SCT250
     FM301100 22003KT 4SM BR SCT150
     FM301300 23004KT P6SM SCT050 SCT250
     FM302100 VRB05KT P6SM VCSH BKN050 OVC100 PROB30 3021/3024 6SM
      TS BKN050CB=



000
FTUS42 KRAH 300244 AAA
TAFRDU
TAF AMD
KRDU 300244Z 3003/3024 VRB05KT P6SM FEW050 SCT150 SCT250
     FM301100 22003KT 4SM BR SCT150
     FM301300 23004KT P6SM SCT050 SCT250
     FM302100 VRB05KT P6SM VCSH BKN050 OVC100 PROB30 3021/3024 6SM
      TS BKN050CB=



000
FTUS42 KRAH 300243 AAA
TAFGSO
TAF AMD
KGSO 300243Z 3003/3024 VRB03KT P6SM SCT070 BKN150
     FM301000 VRB04KT 5SM BR SCT250
     FM301300 26006KT P6SM SCT050 SCT250
     FM301900 28006KT P6SM VCSH OVC050 PROB30 3019/3023 4SM TS
      BKN050CB=



000
FTUS42 KRAH 300243 AAA
TAFGSO
TAF AMD
KGSO 300243Z 3003/3024 VRB03KT P6SM SCT070 BKN150
     FM301000 VRB04KT 5SM BR SCT250
     FM301300 26006KT P6SM SCT050 SCT250
     FM301900 28006KT P6SM VCSH OVC050 PROB30 3019/3023 4SM TS
      BKN050CB=



000
FTUS42 KRAH 292336
TAFGSO
TAF
KGSO 292336Z 3000/3024 VRB03KT P6SM VCSH FEW035 BKN100
     FM300200 VRB03KT P6SM SCT070 BKN150
     FM301000 VRB04KT 5SM BR SCT250
     FM301300 26006KT P6SM SCT050 SCT250
     FM301900 28006KT P6SM VCSH OVC050 PROB30 3019/3023 4SM TS
      BKN050CB=



000
FTUS42 KRAH 292336
TAFGSO
TAF
KGSO 292336Z 3000/3024 VRB03KT P6SM VCSH FEW035 BKN100
     FM300200 VRB03KT P6SM SCT070 BKN150
     FM301000 VRB04KT 5SM BR SCT250
     FM301300 26006KT P6SM SCT050 SCT250
     FM301900 28006KT P6SM VCSH OVC050 PROB30 3019/3023 4SM TS
      BKN050CB=



000
FTUS42 KRAH 292336
TAFRWI
TAF
KRWI 292336Z 3000/3024 VRB05KT P6SM FEW070 SCT150
     FM300700 00000KT 4SM BR FEW003 FEW250
      TEMPO 3008/3011 00000KT 1/2SM FG BKN002
     FM301400 VRB03KT P6SM SCT050 SCT150=



000
FTUS42 KRAH 292336
TAFRDU
TAF
KRDU 292336Z 3000/3024 VRB05KT P6SM FEW050 SCT150 SCT250
     FM301100 22003KT 4SM BR SCT150
     FM301300 23004KT P6SM SCT050 SCT250
     FM302100 VRB05KT P6SM VCSH BKN050 OVC100 PROB30 3021/3024 6SM
      TS BKN050CB=



000
FTUS42 KRAH 292336
TAFRDU
TAF
KRDU 292336Z 3000/3024 VRB05KT P6SM FEW050 SCT150 SCT250
     FM301100 22003KT 4SM BR SCT150
     FM301300 23004KT P6SM SCT050 SCT250
     FM302100 VRB05KT P6SM VCSH BKN050 OVC100 PROB30 3021/3024 6SM
      TS BKN050CB=



000
FTUS42 KRAH 292336
TAFFAY
TAF
KFAY 292336Z 3000/3024 VRB05KT P6SM FEW070 SCT150
     FM300800 00000KT 4SM BR FEW003 FEW250
      TEMPO 3010/3012 00000KT 1/2SM FG BKN002
     FM301400 VRB03KT P6SM SCT050 SCT150=



000
FTUS42 KRAH 292336
TAFINT
TAF
KINT 292336Z 3000/3024 VRB03KT P6SM SCT070 BKN150
     FM301000 VRB04KT 5SM BR SCT250
     FM301300 26006KT P6SM SCT050 SCT250
     FM301800 28006KT P6SM VCSH OVC050 PROB30 3018/3022 3SM TS
      BKN050CB=



000
FTUS42 KRAH 292336
TAFINT
TAF
KINT 292336Z 3000/3024 VRB03KT P6SM SCT070 BKN150
     FM301000 VRB04KT 5SM BR SCT250
     FM301300 26006KT P6SM SCT050 SCT250
     FM301800 28006KT P6SM VCSH OVC050 PROB30 3018/3022 3SM TS
      BKN050CB=



000
FTUS42 KRAH 292336
TAFRWI
TAF
KRWI 292336Z 3000/3024 VRB05KT P6SM FEW070 SCT150
     FM300700 00000KT 4SM BR FEW003 FEW250
      TEMPO 3008/3011 00000KT 1/2SM FG BKN002
     FM301400 VRB03KT P6SM SCT050 SCT150=



000
FTUS42 KRAH 292336
TAFFAY
TAF
KFAY 292336Z 3000/3024 VRB05KT P6SM FEW070 SCT150
     FM300800 00000KT 4SM BR FEW003 FEW250
      TEMPO 3010/3012 00000KT 1/2SM FG BKN002
     FM301400 VRB03KT P6SM SCT050 SCT150=



000
FTUS42 KRAH 292223 AAA
TAFGSO
TAF AMD
KGSO 292223Z 2922/3018 00000KT P6SM VCSH SCT025 BKN035
      TEMPO 2922/2924 3SM SHRA BKN015
     FM300000 VRB03KT P6SM SCT070 BKN250=



000
FTUS42 KRAH 292223 AAA
TAFGSO
TAF AMD
KGSO 292223Z 2922/3018 00000KT P6SM VCSH SCT025 BKN035
      TEMPO 2922/2924 3SM SHRA BKN015
     FM300000 VRB03KT P6SM SCT070 BKN250=



000
FTUS42 KRAH 292058 AAA
TAFINT
TAF AMD
KINT 292058Z 2921/3018 00000KT P6SM VCSH SCT025 BKN035
      TEMPO 2921/2923 2SM SHRA BKN015
     FM300000 VRB03KT P6SM SCT070 BKN250=



000
FTUS42 KRAH 292058 AAA
TAFINT
TAF AMD
KINT 292058Z 2921/3018 00000KT P6SM VCSH SCT025 BKN035
      TEMPO 2921/2923 2SM SHRA BKN015
     FM300000 VRB03KT P6SM SCT070 BKN250=



000
FTUS42 KRAH 291720
TAFFAY
TAF
KFAY 291720Z 2918/3018 VRB05KT P6SM SCT050 SCT150
      TEMPO 3008/3011 00000KT 4SM BR BKN007=



000
FTUS42 KRAH 291720
TAFRDU
TAF
KRDU 291720Z 2918/3018 VRB05KT P6SM VCSH BKN060
     FM300000 VRB03KT P6SM SCT035 BKN150=



000
FTUS42 KRAH 291720
TAFGSO
TAF
KGSO 291720Z 2918/3018 00000KT P6SM VCSH SCT025 BKN035
      TEMPO 2918/2922 3SM SHRA BKN015
     FM300000 VRB03KT P6SM SCT070 BKN250=



000
FTUS42 KRAH 291720
TAFGSO
TAF
KGSO 291720Z 2918/3018 00000KT P6SM VCSH SCT025 BKN035
      TEMPO 2918/2922 3SM SHRA BKN015
     FM300000 VRB03KT P6SM SCT070 BKN250=



000
FTUS42 KRAH 291720
TAFINT
TAF
KINT 291720Z 2918/3018 00000KT P6SM VCSH SCT025 BKN035
      TEMPO 2918/2922 3SM SHRA BKN015
     FM300000 VRB03KT P6SM SCT070 BKN250=



000
FTUS42 KRAH 291720
TAFFAY
TAF
KFAY 291720Z 2918/3018 VRB05KT P6SM SCT050 SCT150
      TEMPO 3008/3011 00000KT 4SM BR BKN007=



000
FTUS42 KRAH 291720
TAFRWI
TAF
KRWI 291720Z 2918/3018 VRB05KT P6SM SCT050 SCT150
      TEMPO 3008/3011 00000KT 2SM BR BKN007=



000
FTUS42 KRAH 291720
TAFINT
TAF
KINT 291720Z 2918/3018 00000KT P6SM VCSH SCT025 BKN035
      TEMPO 2918/2922 3SM SHRA BKN015
     FM300000 VRB03KT P6SM SCT070 BKN250=



000
FTUS42 KRAH 291720
TAFRDU
TAF
KRDU 291720Z 2918/3018 VRB05KT P6SM VCSH BKN060
     FM300000 VRB03KT P6SM SCT035 BKN150=



000
FTUS42 KRAH 291720
TAFRWI
TAF
KRWI 291720Z 2918/3018 VRB05KT P6SM SCT050 SCT150
      TEMPO 3008/3011 00000KT 2SM BR BKN007=



000
FTUS42 KRAH 291720
TAFINT
TAF
KINT 291720Z 2918/3018 00000KT P6SM VCSH SCT025 BKN035
      TEMPO 2918/2922 3SM SHRA BKN015
     FM300000 VRB03KT P6SM SCT070 BKN250=



000
FTUS42 KRAH 291720
TAFRDU
TAF
KRDU 291720Z 2918/3018 VRB05KT P6SM VCSH BKN060
     FM300000 VRB03KT P6SM SCT035 BKN150=



000
FTUS42 KRAH 291720
TAFINT
TAF
KINT 291720Z 2918/3018 00000KT P6SM VCSH SCT025 BKN035
      TEMPO 2918/2922 3SM SHRA BKN015
     FM300000 VRB03KT P6SM SCT070 BKN250=



000
FTUS42 KRAH 291720
TAFGSO
TAF
KGSO 291720Z 2918/3018 00000KT P6SM VCSH SCT025 BKN035
      TEMPO 2918/2922 3SM SHRA BKN015
     FM300000 VRB03KT P6SM SCT070 BKN250=



000
FTUS42 KRAH 291720
TAFRWI
TAF
KRWI 291720Z 2918/3018 VRB05KT P6SM SCT050 SCT150
      TEMPO 3008/3011 00000KT 2SM BR BKN007=



000
FTUS42 KRAH 291720
TAFFAY
TAF
KFAY 291720Z 2918/3018 VRB05KT P6SM SCT050 SCT150
      TEMPO 3008/3011 00000KT 4SM BR BKN007=



000
FTUS42 KRAH 291720
TAFGSO
TAF
KGSO 291720Z 2918/3018 00000KT P6SM VCSH SCT025 BKN035
      TEMPO 2918/2922 3SM SHRA BKN015
     FM300000 VRB03KT P6SM SCT070 BKN250=



000
FTUS42 KRAH 291720
TAFRWI
TAF
KRWI 291720Z 2918/3018 VRB05KT P6SM SCT050 SCT150
      TEMPO 3008/3011 00000KT 2SM BR BKN007=



000
FTUS42 KRAH 291720
TAFRDU
TAF
KRDU 291720Z 2918/3018 VRB05KT P6SM VCSH BKN060
     FM300000 VRB03KT P6SM SCT035 BKN150=



000
FTUS42 KRAH 291720
TAFFAY
TAF
KFAY 291720Z 2918/3018 VRB05KT P6SM SCT050 SCT150
      TEMPO 3008/3011 00000KT 4SM BR BKN007=



000
FTUS42 KRAH 291452 AAA
TAFRDU
TAF AMD
KRDU 291452Z 2915/3012 VRB05KT P6SM VCSH SCT020 BKN060
     FM300000 VRB03KT P6SM SCT035 BKN150=



000
FTUS42 KRAH 291452 AAA
TAFRDU
TAF AMD
KRDU 291452Z 2915/3012 VRB05KT P6SM VCSH SCT020 BKN060
     FM300000 VRB03KT P6SM SCT035 BKN150=



000
FTUS42 KRAH 291452 AAA
TAFRDU
TAF AMD
KRDU 291452Z 2915/3012 VRB05KT P6SM VCSH SCT020 BKN060
     FM300000 VRB03KT P6SM SCT035 BKN150=



000
FTUS42 KRAH 291452 AAA
TAFRDU
TAF AMD
KRDU 291452Z 2915/3012 VRB05KT P6SM VCSH SCT020 BKN060
     FM300000 VRB03KT P6SM SCT035 BKN150=



000
FTUS42 KRAH 291451 AAA
TAFGSO
TAF AMD
KGSO 291451Z 2915/3012 VRB05KT P6SM VCSH BKN035
      TEMPO 2915/2917 BKN010
     FM300000 VRB03KT P6SM SCT035 BKN150=



000
FTUS42 KRAH 291451 AAA
TAFGSO
TAF AMD
KGSO 291451Z 2915/3012 VRB05KT P6SM VCSH BKN035
      TEMPO 2915/2917 BKN010
     FM300000 VRB03KT P6SM SCT035 BKN150=



000
FTUS42 KRAH 291450 AAB
TAFINT
TAF AMD
KINT 291450Z 2915/3012 00000KT P6SM VCSH SCT010 BKN035
      TEMPO 2915/2917 BKN010
     FM292000 VRB05KT P6SM VCSH BKN035
     FM300000 VRB03KT P6SM SCT070 BKN250=



000
FTUS42 KRAH 291450 AAB
TAFINT
TAF AMD
KINT 291450Z 2915/3012 00000KT P6SM VCSH SCT010 BKN035
      TEMPO 2915/2917 BKN010
     FM292000 VRB05KT P6SM VCSH BKN035
     FM300000 VRB03KT P6SM SCT070 BKN250=



000
FTUS42 KRAH 291242 AAA
TAFINT
TAF AMD
KINT 291242Z 2913/3012 00000KT 5SM BR SCT005 SCT035
     FM291315 VRB05KT P6SM SCT012 BKN040
     FM292000 VRB05KT P6SM VCSH BKN050
     FM300000 VRB03KT P6SM SCT070 BKN250=



000
FTUS42 KRAH 291242 AAA
TAFINT
TAF AMD
KINT 291242Z 2913/3012 00000KT 5SM BR SCT005 SCT035
     FM291315 VRB05KT P6SM SCT012 BKN040
     FM292000 VRB05KT P6SM VCSH BKN050
     FM300000 VRB03KT P6SM SCT070 BKN250=



000
FTUS42 KRAH 291242 AAA
TAFINT
TAF AMD
KINT 291242Z 2913/3012 00000KT 5SM BR SCT005 SCT035
     FM291315 VRB05KT P6SM SCT012 BKN040
     FM292000 VRB05KT P6SM VCSH BKN050
     FM300000 VRB03KT P6SM SCT070 BKN250=



000
FTUS42 KRAH 291242 AAA
TAFINT
TAF AMD
KINT 291242Z 2913/3012 00000KT 5SM BR SCT005 SCT035
     FM291315 VRB05KT P6SM SCT012 BKN040
     FM292000 VRB05KT P6SM VCSH BKN050
     FM300000 VRB03KT P6SM SCT070 BKN250=



000
FTUS42 KRAH 291120
TAFGSO
TAF
KGSO 291120Z 2912/3012 20005KT P6SM BKN250
     FM292000 21005KT P6SM VCSH BKN050
     FM300000 21003KT P6SM SCT070 BKN250=



000
FTUS42 KRAH 291120
TAFINT
TAF
KINT 291120Z 2912/3012 VRB03KT 3SM BR BKN002 BKN250
     FM291300 20005KT P6SM SCT012 BKN040
     FM292000 21005KT P6SM VCSH BKN050
     FM300000 21003KT P6SM SCT070 BKN250=



000
FTUS42 KRAH 291120
TAFRDU
TAF
KRDU 291120Z 2912/3012 14005KT P6SM VCSH SCT050 SCT250
     FM292000 17005KT P6SM BKN050
     FM300900 21003KT 6SM BR FEW007=



000
FTUS42 KRAH 291120
TAFRWI
TAF
KRWI 291120Z 2912/3012 17005KT P6SM SCT050 BKN150
     FM300900 00000KT 2SM BR BKN007=



000
FTUS42 KRAH 291120
TAFRWI
TAF
KRWI 291120Z 2912/3012 17005KT P6SM SCT050 BKN150
     FM300900 00000KT 2SM BR BKN007=



000
FTUS42 KRAH 291120
TAFFAY
TAF
KFAY 291120Z 2912/3012 10004KT P6SM SCT050 SCT250
     FM300900 20003KT 4SM BR BKN007=



000
FTUS42 KRAH 291120
TAFGSO
TAF
KGSO 291120Z 2912/3012 20005KT P6SM BKN250
     FM292000 21005KT P6SM VCSH BKN050
     FM300000 21003KT P6SM SCT070 BKN250=



000
FTUS42 KRAH 291120
TAFGSO
TAF
KGSO 291120Z 2912/3012 20005KT P6SM BKN250
     FM292000 21005KT P6SM VCSH BKN050
     FM300000 21003KT P6SM SCT070 BKN250=



000
FTUS42 KRAH 291120
TAFINT
TAF
KINT 291120Z 2912/3012 VRB03KT 3SM BR BKN002 BKN250
     FM291300 20005KT P6SM SCT012 BKN040
     FM292000 21005KT P6SM VCSH BKN050
     FM300000 21003KT P6SM SCT070 BKN250=



000
FTUS42 KRAH 291120
TAFRWI
TAF
KRWI 291120Z 2912/3012 17005KT P6SM SCT050 BKN150
     FM300900 00000KT 2SM BR BKN007=



000
FTUS42 KRAH 291120
TAFRDU
TAF
KRDU 291120Z 2912/3012 14005KT P6SM VCSH SCT050 SCT250
     FM292000 17005KT P6SM BKN050
     FM300900 21003KT 6SM BR FEW007=



000
FTUS42 KRAH 291120
TAFRDU
TAF
KRDU 291120Z 2912/3012 14005KT P6SM VCSH SCT050 SCT250
     FM292000 17005KT P6SM BKN050
     FM300900 21003KT 6SM BR FEW007=



000
FTUS42 KRAH 291120
TAFRDU
TAF
KRDU 291120Z 2912/3012 14005KT P6SM VCSH SCT050 SCT250
     FM292000 17005KT P6SM BKN050
     FM300900 21003KT 6SM BR FEW007=



000
FTUS42 KRAH 291120
TAFFAY
TAF
KFAY 291120Z 2912/3012 10004KT P6SM SCT050 SCT250
     FM300900 20003KT 4SM BR BKN007=



000
FTUS42 KRAH 291120
TAFINT
TAF
KINT 291120Z 2912/3012 VRB03KT 3SM BR BKN002 BKN250
     FM291300 20005KT P6SM SCT012 BKN040
     FM292000 21005KT P6SM VCSH BKN050
     FM300000 21003KT P6SM SCT070 BKN250=



000
FTUS42 KRAH 291120
TAFGSO
TAF
KGSO 291120Z 2912/3012 20005KT P6SM BKN250
     FM292000 21005KT P6SM VCSH BKN050
     FM300000 21003KT P6SM SCT070 BKN250=



000
FTUS42 KRAH 291120
TAFRWI
TAF
KRWI 291120Z 2912/3012 17005KT P6SM SCT050 BKN150
     FM300900 00000KT 2SM BR BKN007=



000
FTUS42 KRAH 291120
TAFFAY
TAF
KFAY 291120Z 2912/3012 10004KT P6SM SCT050 SCT250
     FM300900 20003KT 4SM BR BKN007=



000
FTUS42 KRAH 291120
TAFFAY
TAF
KFAY 291120Z 2912/3012 10004KT P6SM SCT050 SCT250
     FM300900 20003KT 4SM BR BKN007=



000
FTUS42 KRAH 291120
TAFINT
TAF
KINT 291120Z 2912/3012 VRB03KT 3SM BR BKN002 BKN250
     FM291300 20005KT P6SM SCT012 BKN040
     FM292000 21005KT P6SM VCSH BKN050
     FM300000 21003KT P6SM SCT070 BKN250=



000
FTUS42 KRAH 291031 AAA
TAFRWI
TAF AMD
KRWI 291031Z 2911/3006 VRB03KT P6SM SCT040 OVC100
      TEMPO 2911/2913 4SM BR SCT004
     FM291400 20005KT P6SM SCT050 BKN150=



000
FTUS42 KRAH 291031 AAA
TAFRWI
TAF AMD
KRWI 291031Z 2911/3006 VRB03KT P6SM SCT040 OVC100
      TEMPO 2911/2913 4SM BR SCT004
     FM291400 20005KT P6SM SCT050 BKN150=



000
FTUS42 KRAH 291030 AAA
TAFFAY
TAF AMD
KFAY 291030Z 2911/3006 10004KT P6SM SCT050 SCT250=



000
FTUS42 KRAH 291030 AAA
TAFFAY
TAF AMD
KFAY 291030Z 2911/3006 10004KT P6SM SCT050 SCT250=



000
FTUS42 KRAH 291030 AAB
TAFRDU
TAF AMD
KRDU 291030Z 2911/3006 VRB03KT P6SM VCSH SCT040 OVC100
     FM291500 20005KT P6SM SCT050 SCT250
     FM292000 21005KT P6SM VCSH BKN050=



000
FTUS42 KRAH 291030 AAB
TAFRDU
TAF AMD
KRDU 291030Z 2911/3006 VRB03KT P6SM VCSH SCT040 OVC100
     FM291500 20005KT P6SM SCT050 SCT250
     FM292000 21005KT P6SM VCSH BKN050=



000
FTUS42 KRAH 291030 AAB
TAFRDU
TAF AMD
KRDU 291030Z 2911/3006 VRB03KT P6SM VCSH SCT040 OVC100
     FM291500 20005KT P6SM SCT050 SCT250
     FM292000 21005KT P6SM VCSH BKN050=



000
FTUS42 KRAH 291030 AAB
TAFRDU
TAF AMD
KRDU 291030Z 2911/3006 VRB03KT P6SM VCSH SCT040 OVC100
     FM291500 20005KT P6SM SCT050 SCT250
     FM292000 21005KT P6SM VCSH BKN050=



000
FTUS42 KRAH 291029 AAA
TAFGSO
TAF AMD
KGSO 291029Z 2910/3006 VRB03KT 6SM BR SCT004 SCT250
      TEMPO 2911/2913 3SM BR BKN004
     FM291400 20005KT P6SM SCT050 SCT250
     FM292000 21005KT P6SM VCSH BKN050=



000
FTUS42 KRAH 291029 AAA
TAFGSO
TAF AMD
KGSO 291029Z 2910/3006 VRB03KT 6SM BR SCT004 SCT250
      TEMPO 2911/2913 3SM BR BKN004
     FM291400 20005KT P6SM SCT050 SCT250
     FM292000 21005KT P6SM VCSH BKN050=



000
FTUS42 KRAH 291029 AAA
TAFGSO
TAF AMD
KGSO 291029Z 2910/3006 VRB03KT 6SM BR SCT004 SCT250
      TEMPO 2911/2913 3SM BR BKN004
     FM291400 20005KT P6SM SCT050 SCT250
     FM292000 21005KT P6SM VCSH BKN050=



000
FTUS42 KRAH 290834 AAA
TAFRDU
TAF AMD
KRDU 290834Z 2909/3006 VRB03KT P6SM SCT040 OVC100
     FM291000 VRB02KT 4SM BR SCT250
     FM291400 20005KT P6SM SCT050 SCT250
     FM292000 21005KT P6SM VCSH BKN050=



000
FTUS42 KRAH 290812 AAB
TAFINT
TAF AMD
KINT 290812Z 2908/3006 VRB03KT 3SM BR BKN004 BKN250
      TEMPO 2908/2912 1/4SM FG VV002
     FM291400 20005KT P6SM SCT050 SCT250
     FM292000 21005KT P6SM VCSH BKN050=



000
FTUS42 KRAH 290812 AAB
TAFINT
TAF AMD
KINT 290812Z 2908/3006 VRB03KT 3SM BR BKN004 BKN250
      TEMPO 2908/2912 1/4SM FG VV002
     FM291400 20005KT P6SM SCT050 SCT250
     FM292000 21005KT P6SM VCSH BKN050=



000
FTUS42 KRAH 290812 AAB
TAFINT
TAF AMD
KINT 290812Z 2908/3006 VRB03KT 3SM BR BKN004 BKN250
      TEMPO 2908/2912 1/4SM FG VV002
     FM291400 20005KT P6SM SCT050 SCT250
     FM292000 21005KT P6SM VCSH BKN050=



000
FTUS42 KRAH 290804 AAA
TAFINT
TAF AMD
KINT 290804Z 2908/3006 VRB03KT 6SM BR SCT004 SCT250
      TEMPO 2908/2912 1SM BR BKN004
     FM291400 20005KT P6SM SCT050 SCT250
     FM292000 21005KT P6SM VCSH BKN050=



000
FTUS42 KRAH 290804 AAA
TAFINT
TAF AMD
KINT 290804Z 2908/3006 VRB03KT 6SM BR SCT004 SCT250
      TEMPO 2908/2912 1SM BR BKN004
     FM291400 20005KT P6SM SCT050 SCT250
     FM292000 21005KT P6SM VCSH BKN050=



000
FTUS42 KRAH 290528
TAFRDU
TAF
KRDU 290528Z 2906/3006 VRB03KT P6SM VCSH SCT040 OVC100
     FM290900 VRB02KT 4SM BR SCT250
     FM291400 20005KT P6SM SCT050 SCT250
     FM292000 21005KT P6SM VCSH BKN050=



000
FTUS42 KRAH 290528
TAFINT
TAF
KINT 290528Z 2906/3006 VRB03KT 6SM BR SCT004 SCT250
      TEMPO 2909/2913 1SM BR BKN004
     FM291400 20005KT P6SM SCT050 SCT250
     FM292000 21005KT P6SM VCSH BKN050=



000
FTUS42 KRAH 290528
TAFRWI
TAF
KRWI 290528Z 2906/3006 VRB03KT P6SM SCT040 OVC100
     FM290700 00000KT 4SM BR SCT250
      TEMPO 2907/2911 1SM BR SCT004
     FM291400 20005KT P6SM SCT050 BKN150=



000
FTUS42 KRAH 290528
TAFFAY
TAF
KFAY 290528Z 2906/3006 16005KT P6SM SCT040 SCT250
     FM290900 00000KT 4SM BR SCT003
     FM291400 10004KT P6SM SCT050 SCT250=



000
FTUS42 KRAH 290528
TAFRDU
TAF
KRDU 290528Z 2906/3006 VRB03KT P6SM VCSH SCT040 OVC100
     FM290900 VRB02KT 4SM BR SCT250
     FM291400 20005KT P6SM SCT050 SCT250
     FM292000 21005KT P6SM VCSH BKN050=



000
FTUS42 KRAH 290528
TAFFAY
TAF
KFAY 290528Z 2906/3006 16005KT P6SM SCT040 SCT250
     FM290900 00000KT 4SM BR SCT003
     FM291400 10004KT P6SM SCT050 SCT250=



000
FTUS42 KRAH 290528
TAFRWI
TAF
KRWI 290528Z 2906/3006 VRB03KT P6SM SCT040 OVC100
     FM290700 00000KT 4SM BR SCT250
      TEMPO 2907/2911 1SM BR SCT004
     FM291400 20005KT P6SM SCT050 BKN150=



000
FTUS42 KRAH 290528
TAFGSO
TAF
KGSO 290528Z 2906/3006 VRB03KT 3SM BR SCT004 SCT250
      TEMPO 2909/2913 1SM BR BKN004
     FM291400 20005KT P6SM SCT050 SCT250
     FM292000 21005KT P6SM VCSH BKN050=



000
FTUS42 KRAH 290528
TAFINT
TAF
KINT 290528Z 2906/3006 VRB03KT 6SM BR SCT004 SCT250
      TEMPO 2909/2913 1SM BR BKN004
     FM291400 20005KT P6SM SCT050 SCT250
     FM292000 21005KT P6SM VCSH BKN050=



000
FTUS42 KRAH 290528
TAFGSO
TAF
KGSO 290528Z 2906/3006 VRB03KT 3SM BR SCT004 SCT250
      TEMPO 2909/2913 1SM BR BKN004
     FM291400 20005KT P6SM SCT050 SCT250
     FM292000 21005KT P6SM VCSH BKN050=



000
FTUS42 KRAH 290426 AAC
TAFGSO
TAF AMD
KGSO 290426Z 2904/2924 17004KT 3SM BR BKN004 BKN070
      TEMPO 2904/2906 00000KT 1/2SM FG BKN001
     FM290600 VRB03KT 2SM BR BKN004 BKN070
      TEMPO 2909/2913 SCT004 BKN070
     FM291300 20005KT P6SM SCT050 SCT250
     FM292000 21005KT P6SM VCSH BKN050=



000
FTUS42 KRAH 290426 AAC
TAFGSO
TAF AMD
KGSO 290426Z 2904/2924 17004KT 3SM BR BKN004 BKN070
      TEMPO 2904/2906 00000KT 1/2SM FG BKN001
     FM290600 VRB03KT 2SM BR BKN004 BKN070
      TEMPO 2909/2913 SCT004 BKN070
     FM291300 20005KT P6SM SCT050 SCT250
     FM292000 21005KT P6SM VCSH BKN050=



000
FTUS42 KRAH 290353 AAB
TAFGSO
TAF AMD
KGSO 290353Z 2904/2924 17004KT 5SM BR BKN004 BKN070
      TEMPO 2906/2910 SCT004 BKN070
     FM291400 20005KT P6SM SCT050 SCT250
     FM292000 21005KT P6SM VCSH BKN050=



000
FTUS42 KRAH 290353 AAB
TAFGSO
TAF AMD
KGSO 290353Z 2904/2924 17004KT 5SM BR BKN004 BKN070
      TEMPO 2906/2910 SCT004 BKN070
     FM291400 20005KT P6SM SCT050 SCT250
     FM292000 21005KT P6SM VCSH BKN050=



000
FTUS42 KRAH 290217 AAA
TAFRDU
TAF AMD
KRDU 290217Z 2902/2924 18003KT P6SM VCSH SCT040 OVC100
     FM290900 19002KT 4SM BR SCT250
     FM291400 20005KT P6SM SCT050 SCT250
     FM292000 21005KT P6SM VCSH BKN050=



000
FTUS42 KRAH 290217 AAA
TAFRDU
TAF AMD
KRDU 290217Z 2902/2924 18003KT P6SM VCSH SCT040 OVC100
     FM290900 19002KT 4SM BR SCT250
     FM291400 20005KT P6SM SCT050 SCT250
     FM292000 21005KT P6SM VCSH BKN050=



000
FTUS42 KRAH 290217 AAA
TAFGSO
TAF AMD
KGSO 290217Z 2902/2924 VRB04KT P6SM SCT050 BKN250
     FM290900 17004KT 5SM BR SCT004 SCT250
     FM291400 20005KT P6SM SCT050 SCT250
     FM292000 21005KT P6SM VCSH BKN050=



000
FTUS42 KRAH 290217 AAA
TAFGSO
TAF AMD
KGSO 290217Z 2902/2924 VRB04KT P6SM SCT050 BKN250
     FM290900 17004KT 5SM BR SCT004 SCT250
     FM291400 20005KT P6SM SCT050 SCT250
     FM292000 21005KT P6SM VCSH BKN050=



000
FTUS42 KRAH 282333
TAFFAY
TAF
KFAY 282333Z 2900/2924 14005KT P6SM SCT040 SCT250
     FM290900 00000KT 4SM BR SCT003
     FM291400 10004KT P6SM SCT050 SCT250=



000
FTUS42 KRAH 282333
TAFGSO
TAF
KGSO 282333Z 2900/2924 20004KT P6SM VCSH BKN050 OVC100
     FM290400 00000KT P6SM BKN250
     FM290900 17004KT 5SM BR SCT004 SCT250
     FM291400 20005KT P6SM SCT050 SCT250
     FM292000 21005KT P6SM VCSH BKN050=



000
FTUS42 KRAH 282333
TAFRWI
TAF
KRWI 282333Z 2900/2924 VRB03KT P6SM SCT040 OVC100
     FM290700 00000KT 4SM BR SCT250
      TEMPO 2907/2911 1SM BR SCT004
     FM291400 20005KT P6SM SCT050 BKN150=



000
FTUS42 KRAH 282333
TAFRDU
TAF
KRDU 282333Z 2900/2924 18003KT P6SM VCSH SCT040 OVC100
     FM290900 19002KT 4SM BR SCT250
     FM291400 20005KT P6SM SCT050 SCT250
     FM292000 21005KT P6SM VCSH BKN050=



000
FTUS42 KRAH 282333
TAFINT
TAF
KINT 282333Z 2900/2924 20004KT P6SM VCSH BKN050 OVC100
     FM290400 00000KT P6SM BKN250
     FM290900 17004KT 5SM BR SCT004 SCT250
     FM291400 20005KT P6SM SCT050 SCT250
     FM292000 21005KT P6SM VCSH BKN050=



000
FTUS42 KRAH 282333
TAFFAY
TAF
KFAY 282333Z 2900/2924 14005KT P6SM SCT040 SCT250
     FM290900 00000KT 4SM BR SCT003
     FM291400 10004KT P6SM SCT050 SCT250=



000
FTUS42 KRAH 282333
TAFINT
TAF
KINT 282333Z 2900/2924 20004KT P6SM VCSH BKN050 OVC100
     FM290400 00000KT P6SM BKN250
     FM290900 17004KT 5SM BR SCT004 SCT250
     FM291400 20005KT P6SM SCT050 SCT250
     FM292000 21005KT P6SM VCSH BKN050=



000
FTUS42 KRAH 282333
TAFRDU
TAF
KRDU 282333Z 2900/2924 18003KT P6SM VCSH SCT040 OVC100
     FM290900 19002KT 4SM BR SCT250
     FM291400 20005KT P6SM SCT050 SCT250
     FM292000 21005KT P6SM VCSH BKN050=



000
FTUS42 KRAH 282333
TAFGSO
TAF
KGSO 282333Z 2900/2924 20004KT P6SM VCSH BKN050 OVC100
     FM290400 00000KT P6SM BKN250
     FM290900 17004KT 5SM BR SCT004 SCT250
     FM291400 20005KT P6SM SCT050 SCT250
     FM292000 21005KT P6SM VCSH BKN050=



000
FTUS42 KRAH 282333
TAFRWI
TAF
KRWI 282333Z 2900/2924 VRB03KT P6SM SCT040 OVC100
     FM290700 00000KT 4SM BR SCT250
      TEMPO 2907/2911 1SM BR SCT004
     FM291400 20005KT P6SM SCT050 BKN150=



000
FTUS42 KRAH 282333
TAFRWI
TAF
KRWI 282333Z 2900/2924 VRB03KT P6SM SCT040 OVC100
     FM290700 00000KT 4SM BR SCT250
      TEMPO 2907/2911 1SM BR SCT004
     FM291400 20005KT P6SM SCT050 BKN150=



000
FTUS42 KRAH 282333
TAFFAY
TAF
KFAY 282333Z 2900/2924 14005KT P6SM SCT040 SCT250
     FM290900 00000KT 4SM BR SCT003
     FM291400 10004KT P6SM SCT050 SCT250=



000
FTUS42 KRAH 282333
TAFRDU
TAF
KRDU 282333Z 2900/2924 18003KT P6SM VCSH SCT040 OVC100
     FM290900 19002KT 4SM BR SCT250
     FM291400 20005KT P6SM SCT050 SCT250
     FM292000 21005KT P6SM VCSH BKN050=



000
FTUS42 KRAH 282333
TAFINT
TAF
KINT 282333Z 2900/2924 20004KT P6SM VCSH BKN050 OVC100
     FM290400 00000KT P6SM BKN250
     FM290900 17004KT 5SM BR SCT004 SCT250
     FM291400 20005KT P6SM SCT050 SCT250
     FM292000 21005KT P6SM VCSH BKN050=



000
FTUS42 KRAH 282333
TAFGSO
TAF
KGSO 282333Z 2900/2924 20004KT P6SM VCSH BKN050 OVC100
     FM290400 00000KT P6SM BKN250
     FM290900 17004KT 5SM BR SCT004 SCT250
     FM291400 20005KT P6SM SCT050 SCT250
     FM292000 21005KT P6SM VCSH BKN050=



000
FTUS42 KRAH 282137 AAB
TAFGSO
TAF AMD
KGSO 282137Z 2822/2918 20004KT P6SM VCTS BKN050CB
      TEMPO 2822/2824 5SM TSRA BKN030CB
     FM290100 10004KT P6SM FEW040 BKN150
     FM291000 17004KT 5SM BR SCT004
     FM291400 19005KT P6SM BKN045=



000
FTUS42 KRAH 282137 AAB
TAFGSO
TAF AMD
KGSO 282137Z 2822/2918 20004KT P6SM VCTS BKN050CB
      TEMPO 2822/2824 5SM TSRA BKN030CB
     FM290100 10004KT P6SM FEW040 BKN150
     FM291000 17004KT 5SM BR SCT004
     FM291400 19005KT P6SM BKN045=



000
FTUS42 KRAH 282108 AAA
TAFINT
TAF AMD
KINT 282108Z 2821/2918 20004KT P6SM VCTS BKN050CB BKN250
      TEMPO 2821/2823 3SM -TSRA BKN024CB
     FM290100 10004KT P6SM FEW040
     FM291000 17004KT 5SM BR SCT004
     FM291400 19005KT P6SM BKN045=



000
FTUS42 KRAH 282108 AAA
TAFINT
TAF AMD
KINT 282108Z 2821/2918 20004KT P6SM VCTS BKN050CB BKN250
      TEMPO 2821/2823 3SM -TSRA BKN024CB
     FM290100 10004KT P6SM FEW040
     FM291000 17004KT 5SM BR SCT004
     FM291400 19005KT P6SM BKN045=



000
FTUS42 KRAH 281941 AAA
TAFRDU
TAF AMD
KRDU 281941Z 2820/2918 16006KT P6SM VCSH SCT035 BKN060
      TEMPO 2821/2901 BKN035
     FM290500 14004KT P6SM SCT100
     FM291100 15004KT P6SM FEW004 FEW050
     FM291600 14005KT P6SM SCT025=



000
FTUS42 KRAH 281941 AAA
TAFRDU
TAF AMD
KRDU 281941Z 2820/2918 16006KT P6SM VCSH SCT035 BKN060
      TEMPO 2821/2901 BKN035
     FM290500 14004KT P6SM SCT100
     FM291100 15004KT P6SM FEW004 FEW050
     FM291600 14005KT P6SM SCT025=



000
FTUS42 KRAH 281941 AAA
TAFRDU
TAF AMD
KRDU 281941Z 2820/2918 16006KT P6SM VCSH SCT035 BKN060
      TEMPO 2821/2901 BKN035
     FM290500 14004KT P6SM SCT100
     FM291100 15004KT P6SM FEW004 FEW050
     FM291600 14005KT P6SM SCT025=



    US Dept of Commerce
    National Oceanic and Atmospheric Administration
    National Weather Service
    1325 East West Highway
    Silver Spring, MD 20910
    Page Author: NWS Internet Services Team
Disclaimer
Information Quality
Credits
Glossary
Privacy Policy
Freedom of Information Act (FOIA)
About Us
Career Opportunities